EKRK/RKE METAR and TAF weather

Enter ICAO airport designator
Station Type Date Time Source
EKRK METAR 2019/04/18 20:20 UTC NOAA

EKRK 182020Z AUTO 12001KT 9999NDV NCD 07/04 Q1036


Station Type Date Time Source
EKRK Decoded METAR 2019/04/18 20:20 UTC NOAA

Koebenhavn / Roskilde, Denmark (EKRK) 55-35N 012-08E 44M
Apr 18, 2019 - 04:20 PM EDT / 2019.04.18 2020 UTC
Wind: from the ESE (120 degrees) at 1 MPH (1 KT):0
Temperature: 44 F (7 C)
Dew Point: 39 F (4 C)
Relative Humidity: 81%
Pressure (altimeter): 30.59 in. Hg (1036 hPa)
ob: EKRK 182020Z AUTO 12001KT 9999NDV NCD 07/04 Q1036
cycle: 20

Station Type Date Time Source
EKRK TAF UTC NOAA

Error!

Example: see airport list